sensor_id;sensor_type;location;lat;lon;timestamp;temperature;humidity
67750;DHT22;54550;48.838;8.828;2023-12-20T00:01:16;4.80;99.90
67750;DHT22;54550;48.838;8.828;2023-12-20T00:03:42;4.70;99.90
67750;DHT22;54550;48.838;8.828;2023-12-20T00:06:07;4.70;99.90
67750;DHT22;54550;48.838;8.828;2023-12-20T00:08:33;4.70;99.90
67750;DHT22;54550;48.838;8.828;2023-12-20T00:10:58;4.60;99.90
67750;DHT22;54550;48.838;8.828;2023-12-20T00:13:23;4.70;99.90
67750;DHT22;54550;48.838;8.828;2023-12-20T00:15:49;4.60;99.90
67750;DHT22;54550;48.838;8.828;2023-12-20T00:18:14;4.60;99.90
67750;DHT22;54550;48.838;8.828;2023-12-20T00:20:40;4.60;99.90
67750;DHT22;54550;48.838;8.828;2023-12-20T00:23:05;4.60;99.90
67750;DHT22;54550;48.838;8.828;2023-12-20T00:25:31;4.60;99.90
67750;DHT22;54550;48.838;8.828;2023-12-20T00:27:56;4.60;99.90
67750;DHT22;54550;48.838;8.828;2023-12-20T00:30:22;4.60;99.90
67750;DHT22;54550;48.838;8.828;2023-12-20T00:32:47;4.60;99.90
67750;DHT22;54550;48.838;8.828;2023-12-20T00:35:13;4.60;99.90
67750;DHT22;54550;48.838;8.828;2023-12-20T00:37:39;4.60;99.90
67750;DHT22;54550;48.838;8.828;2023-12-20T00:40:04;4.60;99.90
67750;DHT22;54550;48.838;8.828;2023-12-20T00:42:30;4.70;99.90
67750;DHT22;54550;48.838;8.828;2023-12-20T00:44:55;5.10;99.90
67750;DHT22;54550;48.838;8.828;2023-12-20T00:47:21;5.30;99.90
67750;DHT22;54550;48.838;8.828;2023-12-20T00:49:47;5.50;99.90
67750;DHT22;54550;48.838;8.828;2023-12-20T00:52:12;5.70;99.90
67750;DHT22;54550;48.838;8.828;2023-12-20T00:54:38;5.80;99.90
67750;DHT22;54550;48.838;8.828;2023-12-20T00:57:04;5.90;99.90
67750;DHT22;54550;48.838;8.828;2023-12-20T00:59:29;6.00;99.90
67750;DHT22;54550;48.838;8.828;2023-12-20T01:01:55;5.90;99.90
67750;DHT22;54550;48.838;8.828;2023-12-20T01:04:20;6.00;99.90
67750;DHT22;54550;48.838;8.828;2023-12-20T01:06:46;6.10;99.90
67750;DHT22;54550;48.838;8.828;2023-12-20T01:09:12;6.00;99.90
67750;DHT22;54550;48.838;8.828;2023-12-20T01:11:37;6.00;99.90
67750;DHT22;54550;48.838;8.828;2023-12-20T01:14:03;6.00;99.90
67750;DHT22;54550;48.838;8.828;2023-12-20T01:16:28;6.00;99.90
67750;DHT22;54550;48.838;8.828;2023-12-20T01:18:53;6.00;99.90
67750;DHT22;54550;48.838;8.828;2023-12-20T01:21:19;5.90;99.90
67750;DHT22;54550;48.838;8.828;2023-12-20T01:23:44;5.90;99.90
67750;DHT22;54550;48.838;8.828;2023-12-20T01:26:10;5.90;99.90
67750;DHT22;54550;48.838;8.828;2023-12-20T01:28:35;5.90;99.90
67750;DHT22;54550;48.838;8.828;2023-12-20T01:31:01;5.80;99.90
67750;DHT22;54550;48.838;8.828;2023-12-20T01:33:26;5.80;99.90
67750;DHT22;54550;48.838;8.828;2023-12-20T01:35:52;5.70;99.90
67750;DHT22;54550;48.838;8.828;2023-12-20T01:38:17;5.70;99.90
67750;DHT22;54550;48.838;8.828;2023-12-20T01:40:45;5.60;99.90
67750;DHT22;54550;48.838;8.828;2023-12-20T01:43:11;5.60;99.90
67750;DHT22;54550;48.838;8.828;2023-12-20T01:45:39;5.60;99.90
67750;DHT22;54550;48.838;8.828;2023-12-20T01:48:05;5.50;99.90
67750;DHT22;54550;48.838;8.828;2023-12-20T01:50:31;5.50;99.90
67750;DHT22;54550;48.838;8.828;2023-12-20T01:53:00;5.50;99.90
67750;DHT22;54550;48.838;8.828;2023-12-20T01:55:29;5.40;99.90
67750;DHT22;54550;48.838;8.828;2023-12-20T01:57:56;5.40;99.90
67750;DHT22;54550;48.838;8.828;2023-12-20T02:00:22;5.30;99.90
67750;DHT22;54550;48.838;8.828;2023-12-20T02:02:48;5.30;99.90
67750;DHT22;54550;48.838;8.828;2023-12-20T02:05:15;5.30;99.90
67750;DHT22;54550;48.838;8.828;2023-12-20T02:07:41;5.20;99.90
67750;DHT22;54550;48.838;8.828;2023-12-20T02:10:07;5.20;99.90
67750;DHT22;54550;48.838;8.828;2023-12-20T02:12:33;5.10;99.90
67750;DHT22;54550;48.838;8.828;2023-12-20T02:14:58;5.10;99.90
67750;DHT22;54550;48.838;8.828;2023-12-20T02:17:24;5.00;99.90
67750;DHT22;54550;48.838;8.828;2023-12-20T02:19:50;5.00;99.90
67750;DHT22;54550;48.838;8.828;2023-12-20T02:22:15;5.00;99.90
67750;DHT22;54550;48.838;8.828;2023-12-20T02:24:40;4.90;99.90
67750;DHT22;54550;48.838;8.828;2023-12-20T02:27:07;4.90;99.90
67750;DHT22;54550;48.838;8.828;2023-12-20T02:29:33;4.90;99.90
67750;DHT22;54550;48.838;8.828;2023-12-20T02:31:58;4.80;99.90
67750;DHT22;54550;48.838;8.828;2023-12-20T02:34:25;4.80;99.90
67750;DHT22;54550;48.838;8.828;2023-12-20T02:36:50;4.80;99.90
67750;DHT22;54550;48.838;8.828;2023-12-20T02:39:16;4.80;99.90
67750;DHT22;54550;48.838;8.828;2023-12-20T02:41:41;4.80;99.90
67750;DHT22;54550;48.838;8.828;2023-12-20T02:44:07;4.70;99.90
67750;DHT22;54550;48.838;8.828;2023-12-20T02:46:33;4.70;99.90
67750;DHT22;54550;48.838;8.828;2023-12-20T02:48:58;4.60;99.90
67750;DHT22;54550;48.838;8.828;2023-12-20T02:51:24;4.60;99.90
67750;DHT22;54550;48.838;8.828;2023-12-20T02:53:49;4.60;99.90
67750;DHT22;54550;48.838;8.828;2023-12-20T02:56:14;4.50;99.90
67750;DHT22;54550;48.838;8.828;2023-12-20T02:58:40;4.50;99.90
67750;DHT22;54550;48.838;8.828;2023-12-20T03:01:05;4.50;99.90
67750;DHT22;54550;48.838;8.828;2023-12-20T03:03:31;4.40;99.90
67750;DHT22;54550;48.838;8.828;2023-12-20T03:05:57;4.40;99.90
67750;DHT22;54550;48.838;8.828;2023-12-20T03:08:22;4.40;99.90
67750;DHT22;54550;48.838;8.828;2023-12-20T03:10:48;4.40;99.90
67750;DHT22;54550;48.838;8.828;2023-12-20T03:13:13;4.40;99.90
67750;DHT22;54550;48.838;8.828;2023-12-20T03:15:40;4.40;99.90
67750;DHT22;54550;48.838;8.828;2023-12-20T03:18:08;4.40;99.90
67750;DHT22;54550;48.838;8.828;2023-12-20T03:20:33;4.30;99.90
67750;DHT22;54550;48.838;8.828;2023-12-20T03:23:02;4.30;99.90
67750;DHT22;54550;48.838;8.828;2023-12-20T03:25:28;4.30;99.90
67750;DHT22;54550;48.838;8.828;2023-12-20T03:27:53;4.30;99.90
67750;DHT22;54550;48.838;8.828;2023-12-20T03:30:19;4.20;99.90
67750;DHT22;54550;48.838;8.828;2023-12-20T03:32:45;4.20;99.90
67750;DHT22;54550;48.838;8.828;2023-12-20T03:35:10;4.20;99.90
67750;DHT22;54550;48.838;8.828;2023-12-20T03:37:36;4.20;99.90
67750;DHT22;54550;48.838;8.828;2023-12-20T03:40:02;4.20;99.90
67750;DHT22;54550;48.838;8.828;2023-12-20T03:42:28;4.20;99.90
67750;DHT22;54550;48.838;8.828;2023-12-20T03:44:56;4.20;99.90
67750;DHT22;54550;48.838;8.828;2023-12-20T03:47:22;4.20;99.90
67750;DHT22;54550;48.838;8.828;2023-12-20T03:49:47;4.20;99.90
67750;DHT22;54550;48.838;8.828;2023-12-20T03:52:12;4.20;99.90
67750;DHT22;54550;48.838;8.828;2023-12-20T03:54:38;4.20;99.90
67750;DHT22;54550;48.838;8.828;2023-12-20T03:57:04;4.10;99.90
67750;DHT22;54550;48.838;8.828;2023-12-20T03:59:29;4.10;99.90
67750;DHT22;54550;48.838;8.828;2023-12-20T04:01:55;4.10;99.90
67750;DHT22;54550;48.838;8.828;2023-12-20T04:04:20;4.10;99.90
67750;DHT22;54550;48.838;8.828;2023-12-20T04:06:47;4.10;99.90
67750;DHT22;54550;48.838;8.828;2023-12-20T04:09:12;4.20;99.90
67750;DHT22;54550;48.838;8.828;2023-12-20T04:11:38;4.20;99.90
67750;DHT22;54550;48.838;8.828;2023-12-20T04:14:03;4.10;99.90
67750;DHT22;54550;48.838;8.828;2023-12-20T04:16:30;4.10;99.90
67750;DHT22;54550;48.838;8.828;2023-12-20T04:18:55;4.10;99.90
67750;DHT22;54550;48.838;8.828;2023-12-20T04:21:21;4.00;99.90
67750;DHT22;54550;48.838;8.828;2023-12-20T04:23:46;4.10;99.90
67750;DHT22;54550;48.838;8.828;2023-12-20T04:26:12;4.10;99.90
67750;DHT22;54550;48.838;8.828;2023-12-20T04:28:37;4.10;99.90
67750;DHT22;54550;48.838;8.828;2023-12-20T04:31:03;4.10;99.90
67750;DHT22;54550;48.838;8.828;2023-12-20T04:33:28;4.10;99.90
67750;DHT22;54550;48.838;8.828;2023-12-20T04:35:54;4.10;99.90
67750;DHT22;54550;48.838;8.828;2023-12-20T04:38:19;4.10;99.90
67750;DHT22;54550;48.838;8.828;2023-12-20T04:40:45;4.20;99.90
67750;DHT22;54550;48.838;8.828;2023-12-20T04:43:10;4.20;99.90
67750;DHT22;54550;48.838;8.828;2023-12-20T04:45:36;4.20;99.90
67750;DHT22;54550;48.838;8.828;2023-12-20T04:48:02;4.30;99.90
67750;DHT22;54550;48.838;8.828;2023-12-20T04:50:27;4.30;99.90
67750;DHT22;54550;48.838;8.828;2023-12-20T04:52:53;4.30;99.90
67750;DHT22;54550;48.838;8.828;2023-12-20T04:55:18;4.30;99.90
67750;DHT22;54550;48.838;8.828;2023-12-20T04:57:44;4.30;99.90
67750;DHT22;54550;48.838;8.828;2023-12-20T05:00:09;4.40;99.90
67750;DHT22;54550;48.838;8.828;2023-12-20T05:02:35;4.40;99.90
67750;DHT22;54550;48.838;8.828;2023-12-20T05:05:01;4.40;99.90
67750;DHT22;54550;48.838;8.828;2023-12-20T05:07:26;4.40;99.90
67750;DHT22;54550;48.838;8.828;2023-12-20T05:09:52;4.50;99.90
67750;DHT22;54550;48.838;8.828;2023-12-20T05:12:17;4.50;99.90
67750;DHT22;54550;48.838;8.828;2023-12-20T05:14:43;4.50;99.90
67750;DHT22;54550;48.838;8.828;2023-12-20T05:17:10;4.50;99.90
67750;DHT22;54550;48.838;8.828;2023-12-20T05:19:35;4.50;99.90
67750;DHT22;54550;48.838;8.828;2023-12-20T05:22:01;4.50;99.90
67750;DHT22;54550;48.838;8.828;2023-12-20T05:24:27;4.50;99.90
67750;DHT22;54550;48.838;8.828;2023-12-20T05:26:52;4.50;99.90
67750;DHT22;54550;48.838;8.828;2023-12-20T05:29:18;4.60;99.90
67750;DHT22;54550;48.838;8.828;2023-12-20T05:31:43;4.60;99.90
67750;DHT22;54550;48.838;8.828;2023-12-20T05:34:09;4.50;99.90
67750;DHT22;54550;48.838;8.828;2023-12-20T05:36:34;4.60;99.90
67750;DHT22;54550;48.838;8.828;2023-12-20T05:39:00;4.60;99.90
67750;DHT22;54550;48.838;8.828;2023-12-20T05:41:25;4.60;99.90
67750;DHT22;54550;48.838;8.828;2023-12-20T05:43:51;4.60;99.90
67750;DHT22;54550;48.838;8.828;2023-12-20T05:46:16;4.60;99.90
67750;DHT22;54550;48.838;8.828;2023-12-20T05:48:42;4.50;99.90
67750;DHT22;54550;48.838;8.828;2023-12-20T05:51:07;4.60;99.90
67750;DHT22;54550;48.838;8.828;2023-12-20T05:53:33;4.60;99.90
67750;DHT22;54550;48.838;8.828;2023-12-20T05:55:58;4.60;99.90
67750;DHT22;54550;48.838;8.828;2023-12-20T05:58:25;4.60;99.90
67750;DHT22;54550;48.838;8.828;2023-12-20T06:00:50;4.60;99.90
67750;DHT22;54550;48.838;8.828;2023-12-20T06:03:16;4.60;99.90
67750;DHT22;54550;48.838;8.828;2023-12-20T06:05:41;4.60;99.90
67750;DHT22;54550;48.838;8.828;2023-12-20T06:08:06;4.60;99.90
67750;DHT22;54550;48.838;8.828;2023-12-20T06:10:32;4.60;99.90
67750;DHT22;54550;48.838;8.828;2023-12-20T06:12:57;4.60;99.90
67750;DHT22;54550;48.838;8.828;2023-12-20T06:15:25;4.50;99.90
67750;DHT22;54550;48.838;8.828;2023-12-20T06:17:51;4.60;99.90
67750;DHT22;54550;48.838;8.828;2023-12-20T06:20:16;4.50;99.90
67750;DHT22;54550;48.838;8.828;2023-12-20T06:22:42;4.60;99.90
67750;DHT22;54550;48.838;8.828;2023-12-20T06:25:07;4.60;99.90
67750;DHT22;54550;48.838;8.828;2023-12-20T06:27:33;4.60;99.90
67750;DHT22;54550;48.838;8.828;2023-12-20T06:29:59;4.60;99.90
67750;DHT22;54550;48.838;8.828;2023-12-20T06:32:24;4.60;99.90
67750;DHT22;54550;48.838;8.828;2023-12-20T06:34:50;4.60;99.90
67750;DHT22;54550;48.838;8.828;2023-12-20T06:37:15;4.60;99.90
67750;DHT22;54550;48.838;8.828;2023-12-20T06:39:41;4.60;99.90
67750;DHT22;54550;48.838;8.828;2023-12-20T06:42:06;4.60;99.90
67750;DHT22;54550;48.838;8.828;2023-12-20T06:44:32;4.60;99.90
67750;DHT22;54550;48.838;8.828;2023-12-20T06:46:57;4.60;99.90
67750;DHT22;54550;48.838;8.828;2023-12-20T06:49:23;4.60;99.90
67750;DHT22;54550;48.838;8.828;2023-12-20T06:51:48;4.60;99.90
67750;DHT22;54550;48.838;8.828;2023-12-20T06:54:14;4.60;99.90
67750;DHT22;54550;48.838;8.828;2023-12-20T06:56:39;4.60;99.90
67750;DHT22;54550;48.838;8.828;2023-12-20T06:59:06;4.50;99.90
67750;DHT22;54550;48.838;8.828;2023-12-20T07:01:32;4.50;99.90
67750;DHT22;54550;48.838;8.828;2023-12-20T07:03:57;4.40;99.90
67750;DHT22;54550;48.838;8.828;2023-12-20T07:06:23;4.30;99.90
67750;DHT22;54550;48.838;8.828;2023-12-20T07:08:49;4.20;99.90
67750;DHT22;54550;48.838;8.828;2023-12-20T07:11:14;4.20;99.90
67750;DHT22;54550;48.838;8.828;2023-12-20T07:13:40;4.20;99.90
67750;DHT22;54550;48.838;8.828;2023-12-20T07:16:05;4.20;99.90
67750;DHT22;54550;48.838;8.828;2023-12-20T07:18:31;4.20;99.90
67750;DHT22;54550;48.838;8.828;2023-12-20T07:20:56;4.20;99.90
67750;DHT22;54550;48.838;8.828;2023-12-20T07:23:22;4.20;99.90
67750;DHT22;54550;48.838;8.828;2023-12-20T07:25:47;4.10;99.90
67750;DHT22;54550;48.838;8.828;2023-12-20T07:28:13;4.10;99.90
67750;DHT22;54550;48.838;8.828;2023-12-20T07:30:39;4.10;99.90
67750;DHT22;54550;48.838;8.828;2023-12-20T07:33:04;4.10;99.90
67750;DHT22;54550;48.838;8.828;2023-12-20T07:35:30;4.10;99.90
67750;DHT22;54550;48.838;8.828;2023-12-20T07:37:55;4.00;99.90
67750;DHT22;54550;48.838;8.828;2023-12-20T07:40:21;4.00;99.90
67750;DHT22;54550;48.838;8.828;2023-12-20T07:42:46;4.00;99.90
67750;DHT22;54550;48.838;8.828;2023-12-20T07:45:12;4.00;99.90
67750;DHT22;54550;48.838;8.828;2023-12-20T07:47:37;4.00;99.90
67750;DHT22;54550;48.838;8.828;2023-12-20T07:50:03;4.00;99.90
67750;DHT22;54550;48.838;8.828;2023-12-20T07:52:29;4.00;99.90
67750;DHT22;54550;48.838;8.828;2023-12-20T07:54:54;4.00;99.90
67750;DHT22;54550;48.838;8.828;2023-12-20T07:57:23;4.10;99.90
67750;DHT22;54550;48.838;8.828;2023-12-20T08:02:29;4.10;99.90
67750;DHT22;54550;48.838;8.828;2023-12-20T08:04:54;4.10;99.90
67750;DHT22;54550;48.838;8.828;2023-12-20T08:07:20;4.00;99.90
67750;DHT22;54550;48.838;8.828;2023-12-20T08:09:46;3.90;99.90
67750;DHT22;54550;48.838;8.828;2023-12-20T08:12:12;3.90;99.90
67750;DHT22;54550;48.838;8.828;2023-12-20T08:14:37;3.80;99.90
67750;DHT22;54550;48.838;8.828;2023-12-20T08:17:03;3.80;99.90
67750;DHT22;54550;48.838;8.828;2023-12-20T08:19:28;3.80;99.90
67750;DHT22;54550;48.838;8.828;2023-12-20T08:21:54;3.70;99.90
67750;DHT22;54550;48.838;8.828;2023-12-20T08:24:20;3.60;99.90
67750;DHT22;54550;48.838;8.828;2023-12-20T08:26:45;3.50;99.90
67750;DHT22;54550;48.838;8.828;2023-12-20T08:29:14;3.40;99.90
67750;DHT22;54550;48.838;8.828;2023-12-20T08:31:39;3.50;99.90
67750;DHT22;54550;48.838;8.828;2023-12-20T08:34:05;3.60;99.90
67750;DHT22;54550;48.838;8.828;2023-12-20T08:36:30;3.70;99.90
67750;DHT22;54550;48.838;8.828;2023-12-20T08:38:56;3.80;99.90
67750;DHT22;54550;48.838;8.828;2023-12-20T08:41:21;3.80;99.90
67750;DHT22;54550;48.838;8.828;2023-12-20T08:43:47;3.80;99.90
67750;DHT22;54550;48.838;8.828;2023-12-20T08:46:13;3.90;99.90
67750;DHT22;54550;48.838;8.828;2023-12-20T08:48:39;4.10;99.90
67750;DHT22;54550;48.838;8.828;2023-12-20T08:51:05;4.60;99.90
67750;DHT22;54550;48.838;8.828;2023-12-20T08:53:33;4.90;99.90
67750;DHT22;54550;48.838;8.828;2023-12-20T08:55:59;5.20;99.90
67750;DHT22;54550;48.838;8.828;2023-12-20T08:58:26;5.30;99.90
67750;DHT22;54550;48.838;8.828;2023-12-20T09:00:52;5.50;99.90
67750;DHT22;54550;48.838;8.828;2023-12-20T09:03:17;5.50;99.90
67750;DHT22;54550;48.838;8.828;2023-12-20T09:05:43;5.40;99.90
67750;DHT22;54550;48.838;8.828;2023-12-20T09:08:08;5.40;99.90
67750;DHT22;54550;48.838;8.828;2023-12-20T09:10:35;5.50;99.90
67750;DHT22;54550;48.838;8.828;2023-12-20T09:13:01;5.40;99.90
67750;DHT22;54550;48.838;8.828;2023-12-20T09:15:27;5.60;99.90
67750;DHT22;54550;48.838;8.828;2023-12-20T09:17:54;5.60;99.90
67750;DHT22;54550;48.838;8.828;2023-12-20T09:20:19;5.60;99.90
67750;DHT22;54550;48.838;8.828;2023-12-20T09:22:45;5.60;99.90
67750;DHT22;54550;48.838;8.828;2023-12-20T09:25:10;5.50;99.90
67750;DHT22;54550;48.838;8.828;2023-12-20T09:27:40;5.50;99.90
67750;DHT22;54550;48.838;8.828;2023-12-20T09:30:06;5.50;99.90
67750;DHT22;54550;48.838;8.828;2023-12-20T09:32:32;5.70;99.90
67750;DHT22;54550;48.838;8.828;2023-12-20T09:34:58;5.60;99.90
67750;DHT22;54550;48.838;8.828;2023-12-20T09:37:26;5.60;99.90
67750;DHT22;54550;48.838;8.828;2023-12-20T09:39:52;5.70;99.90
67750;DHT22;54550;48.838;8.828;2023-12-20T09:42:20;5.60;99.90
67750;DHT22;54550;48.838;8.828;2023-12-20T09:44:46;5.80;99.90
67750;DHT22;54550;48.838;8.828;2023-12-20T09:47:12;6.00;99.90
67750;DHT22;54550;48.838;8.828;2023-12-20T09:49:39;5.80;99.90
67750;DHT22;54550;48.838;8.828;2023-12-20T09:52:05;5.80;99.90
67750;DHT22;54550;48.838;8.828;2023-12-20T09:54:33;5.90;99.90
67750;DHT22;54550;48.838;8.828;2023-12-20T09:56:58;6.00;99.90
67750;DHT22;54550;48.838;8.828;2023-12-20T09:59:24;6.10;99.90
67750;DHT22;54550;48.838;8.828;2023-12-20T10:01:49;5.80;99.90
67750;DHT22;54550;48.838;8.828;2023-12-20T10:04:15;5.30;99.90
67750;DHT22;54550;48.838;8.828;2023-12-20T10:06:42;5.00;99.90
67750;DHT22;54550;48.838;8.828;2023-12-20T10:09:08;4.80;99.90
67750;DHT22;54550;48.838;8.828;2023-12-20T10:11:37;4.50;99.90
67750;DHT22;54550;48.838;8.828;2023-12-20T10:14:03;4.40;99.90
67750;DHT22;54550;48.838;8.828;2023-12-20T10:16:29;4.70;99.90
67750;DHT22;54550;48.838;8.828;2023-12-20T10:18:55;4.90;99.90
67750;DHT22;54550;48.838;8.828;2023-12-20T10:21:21;4.90;99.90
67750;DHT22;54550;48.838;8.828;2023-12-20T10:23:47;5.10;99.90
67750;DHT22;54550;48.838;8.828;2023-12-20T10:26:24;5.30;99.90
67750;DHT22;54550;48.838;8.828;2023-12-20T10:28:51;5.40;99.90
67750;DHT22;54550;48.838;8.828;2023-12-20T10:33:53;5.50;99.90
67750;DHT22;54550;48.838;8.828;2023-12-20T10:36:18;5.80;99.90
67750;DHT22;54550;48.838;8.828;2023-12-20T10:38:43;5.80;99.90
67750;DHT22;54550;48.838;8.828;2023-12-20T10:41:09;6.00;99.90
67750;DHT22;54550;48.838;8.828;2023-12-20T10:43:35;6.00;99.90
67750;DHT22;54550;48.838;8.828;2023-12-20T10:46:02;6.00;99.90
67750;DHT22;54550;48.838;8.828;2023-12-20T10:48:28;5.90;99.90
67750;DHT22;54550;48.838;8.828;2023-12-20T10:50:56;5.50;99.90
67750;DHT22;54550;48.838;8.828;2023-12-20T10:53:21;5.10;99.90
67750;DHT22;54550;48.838;8.828;2023-12-20T10:55:47;4.80;99.90
67750;DHT22;54550;48.838;8.828;2023-12-20T10:58:15;4.60;99.90
67750;DHT22;54550;48.838;8.828;2023-12-20T11:00:41;4.50;99.90
67750;DHT22;54550;48.838;8.828;2023-12-20T11:03:09;4.70;99.90
67750;DHT22;54550;48.838;8.828;2023-12-20T11:05:41;5.00;99.90
67750;DHT22;54550;48.838;8.828;2023-12-20T11:08:12;5.10;99.90
67750;DHT22;54550;48.838;8.828;2023-12-20T11:10:43;4.90;99.90
67750;DHT22;54550;48.838;8.828;2023-12-20T11:13:13;5.30;99.90
67750;DHT22;54550;48.838;8.828;2023-12-20T11:15:42;5.70;99.90
67750;DHT22;54550;48.838;8.828;2023-12-20T11:18:08;5.90;99.90
67750;DHT22;54550;48.838;8.828;2023-12-20T11:20:37;5.70;99.90
67750;DHT22;54550;48.838;8.828;2023-12-20T11:23:03;5.70;99.90
67750;DHT22;54550;48.838;8.828;2023-12-20T11:25:29;5.70;99.90
67750;DHT22;54550;48.838;8.828;2023-12-20T11:28:29;5.60;99.90
67750;DHT22;54550;48.838;8.828;2023-12-20T11:30:51;5.80;99.90
67750;DHT22;54550;48.838;8.828;2023-12-20T11:33:17;5.60;99.90
67750;DHT22;54550;48.838;8.828;2023-12-20T11:35:46;5.50;99.90
67750;DHT22;54550;48.838;8.828;2023-12-20T11:38:13;5.50;99.90
67750;DHT22;54550;48.838;8.828;2023-12-20T11:40:38;5.40;99.90
67750;DHT22;54550;48.838;8.828;2023-12-20T11:43:04;5.40;99.90
67750;DHT22;54550;48.838;8.828;2023-12-20T11:45:30;5.60;99.90
67750;DHT22;54550;48.838;8.828;2023-12-20T11:47:57;5.80;99.90
67750;DHT22;54550;48.838;8.828;2023-12-20T11:50:23;6.10;99.90
67750;DHT22;54550;48.838;8.828;2023-12-20T11:52:49;6.60;99.90
67750;DHT22;54550;48.838;8.828;2023-12-20T11:55:15;6.70;99.90
67750;DHT22;54550;48.838;8.828;2023-12-20T11:57:41;6.50;99.90
67750;DHT22;54550;48.838;8.828;2023-12-20T12:00:07;6.60;99.90
67750;DHT22;54550;48.838;8.828;2023-12-20T12:02:33;6.50;99.90
67750;DHT22;54550;48.838;8.828;2023-12-20T12:05:01;6.10;99.90
67750;DHT22;54550;48.838;8.828;2023-12-20T12:07:27;6.10;99.90
67750;DHT22;54550;48.838;8.828;2023-12-20T12:09:52;6.00;99.90
67750;DHT22;54550;48.838;8.828;2023-12-20T12:12:18;6.00;99.90
67750;DHT22;54550;48.838;8.828;2023-12-20T12:14:44;6.00;99.90
67750;DHT22;54550;48.838;8.828;2023-12-20T12:17:13;6.10;99.90
67750;DHT22;54550;48.838;8.828;2023-12-20T12:19:39;6.20;99.90
67750;DHT22;54550;48.838;8.828;2023-12-20T12:22:05;6.10;99.90
67750;DHT22;54550;48.838;8.828;2023-12-20T12:24:36;6.10;99.90
67750;DHT22;54550;48.838;8.828;2023-12-20T12:27:02;6.20;99.90
67750;DHT22;54550;48.838;8.828;2023-12-20T12:29:28;6.40;99.90
67750;DHT22;54550;48.838;8.828;2023-12-20T12:31:54;6.40;99.90
67750;DHT22;54550;48.838;8.828;2023-12-20T12:34:20;6.40;99.90
67750;DHT22;54550;48.838;8.828;2023-12-20T12:36:45;6.40;99.90
67750;DHT22;54550;48.838;8.828;2023-12-20T12:39:14;6.00;99.90
67750;DHT22;54550;48.838;8.828;2023-12-20T12:41:41;5.60;99.90
67750;DHT22;54550;48.838;8.828;2023-12-20T12:44:06;5.60;99.90
67750;DHT22;54550;48.838;8.828;2023-12-20T12:46:31;5.80;99.90
67750;DHT22;54550;48.838;8.828;2023-12-20T12:48:58;5.80;99.90
67750;DHT22;54550;48.838;8.828;2023-12-20T12:51:23;5.90;99.90
67750;DHT22;54550;48.838;8.828;2023-12-20T12:53:49;5.60;99.90
67750;DHT22;54550;48.838;8.828;2023-12-20T12:56:15;5.40;99.90
67750;DHT22;54550;48.838;8.828;2023-12-20T12:58:40;5.50;99.90
67750;DHT22;54550;48.838;8.828;2023-12-20T13:01:06;5.70;99.90
67750;DHT22;54550;48.838;8.828;2023-12-20T13:03:31;6.20;99.90
67750;DHT22;54550;48.838;8.828;2023-12-20T13:05:57;6.80;99.90
67750;DHT22;54550;48.838;8.828;2023-12-20T13:08:22;7.00;99.90
67750;DHT22;54550;48.838;8.828;2023-12-20T13:10:48;6.90;99.90
67750;DHT22;54550;48.838;8.828;2023-12-20T13:13:13;7.20;99.90
67750;DHT22;54550;48.838;8.828;2023-12-20T13:15:39;7.30;99.90
67750;DHT22;54550;48.838;8.828;2023-12-20T13:18:04;7.50;99.90
67750;DHT22;54550;48.838;8.828;2023-12-20T13:20:31;7.30;99.90
67750;DHT22;54550;48.838;8.828;2023-12-20T13:22:56;7.50;99.90
67750;DHT22;54550;48.838;8.828;2023-12-20T13:25:22;7.00;99.90
67750;DHT22;54550;48.838;8.828;2023-12-20T13:27:49;6.50;99.90
67750;DHT22;54550;48.838;8.828;2023-12-20T13:30:15;6.00;99.90
67750;DHT22;54550;48.838;8.828;2023-12-20T13:32:41;5.70;99.90
67750;DHT22;54550;48.838;8.828;2023-12-20T13:35:06;5.20;99.90
67750;DHT22;54550;48.838;8.828;2023-12-20T13:37:32;5.00;99.90
67750;DHT22;54550;48.838;8.828;2023-12-20T13:39:57;4.90;99.90
67750;DHT22;54550;48.838;8.828;2023-12-20T13:42:23;4.80;99.90
67750;DHT22;54550;48.838;8.828;2023-12-20T13:44:48;4.70;99.90
67750;DHT22;54550;48.838;8.828;2023-12-20T13:47:14;4.70;99.90
67750;DHT22;54550;48.838;8.828;2023-12-20T13:49:39;4.70;99.90
67750;DHT22;54550;48.838;8.828;2023-12-20T13:52:05;4.60;99.90
67750;DHT22;54550;48.838;8.828;2023-12-20T13:54:30;4.60;99.90
67750;DHT22;54550;48.838;8.828;2023-12-20T13:56:56;4.50;99.90
67750;DHT22;54550;48.838;8.828;2023-12-20T13:59:23;4.50;99.90
67750;DHT22;54550;48.838;8.828;2023-12-20T14:01:48;4.50;99.90
67750;DHT22;54550;48.838;8.828;2023-12-20T14:04:15;4.50;99.90
67750;DHT22;54550;48.838;8.828;2023-12-20T14:06:41;4.40;99.90
67750;DHT22;54550;48.838;8.828;2023-12-20T14:09:06;4.40;99.90
67750;DHT22;54550;48.838;8.828;2023-12-20T14:11:32;4.40;99.90
67750;DHT22;54550;48.838;8.828;2023-12-20T14:13:57;4.30;99.90
67750;DHT22;54550;48.838;8.828;2023-12-20T14:16:23;4.30;99.90
67750;DHT22;54550;48.838;8.828;2023-12-20T14:18:50;4.20;99.90
67750;DHT22;54550;48.838;8.828;2023-12-20T14:21:17;4.20;99.90
67750;DHT22;54550;48.838;8.828;2023-12-20T14:23:42;4.20;99.90
67750;DHT22;54550;48.838;8.828;2023-12-20T14:26:08;4.10;99.90
67750;DHT22;54550;48.838;8.828;2023-12-20T14:28:40;4.10;99.90
67750;DHT22;54550;48.838;8.828;2023-12-20T14:31:06;4.10;99.90
67750;DHT22;54550;48.838;8.828;2023-12-20T14:33:31;4.10;99.90
67750;DHT22;54550;48.838;8.828;2023-12-20T14:35:57;4.10;99.90
67750;DHT22;54550;48.838;8.828;2023-12-20T14:38:22;4.10;99.90
67750;DHT22;54550;48.838;8.828;2023-12-20T14:40:48;4.10;99.90
67750;DHT22;54550;48.838;8.828;2023-12-20T14:43:13;4.10;99.90
67750;DHT22;54550;48.838;8.828;2023-12-20T14:45:39;4.10;99.90
67750;DHT22;54550;48.838;8.828;2023-12-20T14:48:04;4.10;99.90
67750;DHT22;54550;48.838;8.828;2023-12-20T14:50:30;4.20;99.90
67750;DHT22;54550;48.838;8.828;2023-12-20T14:52:55;4.30;99.90
67750;DHT22;54550;48.838;8.828;2023-12-20T14:55:21;4.30;99.90
67750;DHT22;54550;48.838;8.828;2023-12-20T14:57:47;4.30;99.90
67750;DHT22;54550;48.838;8.828;2023-12-20T15:00:12;4.30;99.90
67750;DHT22;54550;48.838;8.828;2023-12-20T15:02:41;4.30;99.90
67750;DHT22;54550;48.838;8.828;2023-12-20T15:05:10;4.30;99.90
67750;DHT22;54550;48.838;8.828;2023-12-20T15:07:36;4.30;99.90
67750;DHT22;54550;48.838;8.828;2023-12-20T15:10:02;4.30;99.90
67750;DHT22;54550;48.838;8.828;2023-12-20T15:12:27;4.20;99.90
67750;DHT22;54550;48.838;8.828;2023-12-20T15:14:53;4.10;99.90
67750;DHT22;54550;48.838;8.828;2023-12-20T15:17:19;4.00;99.90
67750;DHT22;54550;48.838;8.828;2023-12-20T15:19:44;3.90;99.90
67750;DHT22;54550;48.838;8.828;2023-12-20T15:22:10;3.90;99.90
67750;DHT22;54550;48.838;8.828;2023-12-20T15:24:38;3.80;99.90
67750;DHT22;54550;48.838;8.828;2023-12-20T15:27:06;3.80;99.90
67750;DHT22;54550;48.838;8.828;2023-12-20T15:29:31;3.70;99.90
67750;DHT22;54550;48.838;8.828;2023-12-20T15:31:56;3.70;99.90
67750;DHT22;54550;48.838;8.828;2023-12-20T15:34:22;3.70;99.90
67750;DHT22;54550;48.838;8.828;2023-12-20T15:36:47;3.70;99.90
67750;DHT22;54550;48.838;8.828;2023-12-20T15:39:13;3.60;99.90
67750;DHT22;54550;48.838;8.828;2023-12-20T15:41:42;3.50;99.90